Westgard — PDBQ — position and weather

sailwx.info

Track history (hours):
 
Tides and Currents Weather Stations Pressure Air Temp Water Temp Dewpoint Dewpoint Depression Visibility Wind Speed Wind Dir Waves Ship Positions

Westgard

Last reported at 2016-Jul-21 19:33 UTC. Time now 2016-Jul-23 19:22 UTC.
Position N 55°49' E 015°57'.

Length 89 m; draft 5.3 m.

Type: Ship. MMSI: 246457000.

Date/timePositionNaut miles runAvg speedWind from/ knotsBaromVisibWave heightAir tempDewpointWater temp
2016-Jul-21 19:33N 55°49' E 015°57'1010.2
2016-Jul-21 18:33N 55°44' E 015°42'10 9.9
2016-Jul-21 17:33N 55°39' E 015°26'1010.1
2016-Jul-21 16:33N 55°34' E 015°11'1010.1
2016-Jul-21 15:33N 55°28' E 014°56'1010.0
2016-Jul-21 14:34N 55°23' E 014°41'10 9.8
2016-Jul-21 13:33N 55°16' E 014°29'10 9.6
2016-Jul-21 12:33N 55°09' E 014°17'10 9.8
2016-Jul-21 11:33N 55°02' E 014°06'10 9.5
2016-Jul-21 10:33N 54°58' E 013°50'10 9.5
2016-Jul-21 09:33N 54°54' E 013°35'10 9.6
2016-Jul-21 08:33N 54°50' E 013°20'9 9.4
2016-Jul-21 07:33N 54°46' E 013°05'9 8.8
2016-Jul-21 06:33N 54°42' E 012°51'9 8.9
2016-Jul-21 05:33N 54°38' E 012°38'9 9.1
2016-Jul-21 04:33N 54°33' E 012°25'9 8.8
2016-Jul-21 03:33N 54°27' E 012°14'8 7.9
2016-Jul-21 02:33N 54°25' E 012°01'9 8.7
2016-Jul-21 01:33N 54°25' E 011°46'9 9.4
2016-Jul-21 00:33N 54°29' E 011°31'9 8.7
2016-Jul-20 23:33N 54°32' E 011°17'8 8.3
2016-Jul-20 22:33N 54°34' E 011°03'28 9.3
2016-Jul-20 19:33N 54°27' E 010°16'7 7.0
2016-Jul-20 18:33N 54°22' E 010°09'5 5.0
2016-Jul-20 17:33N 54°21' E 010°00'31 6.2
2016-Jul-20 12:33N 54°02' E 009°18'6 6.0
2016-Jul-20 11:33N 53°57' E 009°14'3 3.1
2016-Jul-20 10:33N 53°54' E 009°10'2 2.1
2016-Jul-20 09:34N 53°53' E 009°08'4 3.8
2016-Jul-20 08:33N 53°51' E 009°02'8 7.6
2016-Jul-20 07:33N 53°50' E 008°49'7 6.6
2016-Jul-20 06:34N 53°55' E 008°41'7 6.6
2016-Jul-20 05:32N 53°58' E 008°31'7 6.8
2016-Jul-20 04:33N 53°59' E 008°20'9 9.1
2016-Jul-20 03:33N 53°59' E 008°04'8 8.4
2016-Jul-20 02:33N 53°57' E 007°50'9 8.7
2016-Jul-20 01:33N 53°55' E 007°36'9 8.9
2016-Jul-20 00:33N 53°53' E 007°21'9 9.3
2016-Jul-19 23:33N 53°51' E 007°06'10 9.7
2016-Jul-19 22:33N 53°49' E 006°50'1010.2
2016-Jul-19 21:33N 53°47' E 006°33'1110.7
2016-Jul-19 20:33N 53°43' E 006°17'1110.8
2016-Jul-19 19:33N 53°39' E 005°59'1110.8
2016-Jul-19 18:33N 53°36' E 005°42'1110.7
2016-Jul-19 17:33N 53°33' E 005°25'1110.9
2016-Jul-19 16:33N 53°29' E 005°07'1110.7
2016-Jul-19 15:31N 53°25' E 004°50'11 9.7
2016-Jul-19 14:23N 53°16' E 004°39'8 9.9
2016-Jul-19 13:33N 53°09' E 004°34'10 9.7
2016-Jul-19 12:33N 52°59' E 004°32'18 8.9
2016-Jul-19 10:33N 52°41' E 004°32'9 8.6
2016-Jul-19 09:33N 52°33' E 004°31'5 5.3
2016-Jul-19 08:33N 52°28' E 004°35'5 4.9
2016-Jul-19 07:33N 52°26' E 004°43'6 2.0
2016-Jul-19 04:31N 52°24' E 004°52'0 0.1
2016-Jul-19 03:34N 52°24' E 004°52'0 0.0
2016-Jul-19 02:34N 52°24' E 004°52'0 0.0
2016-Jul-19 01:31N 52°24' E 004°52'0 0.0
2016-Jul-19 00:34N 52°24' E 004°52'0 0.0
2016-Jul-18 23:33N 52°24' E 004°52'0 0.0
2016-Jul-18 22:33N 52°24' E 004°52'0 0.0
2016-Jul-18 21:31N 52°24' E 004°52'0 0.4
2016-Jul-18 20:29N 52°24' E 004°52'0 0.2
2016-Jul-18 19:33N 52°24' E 004°52'0 0.0
2016-Jul-18 18:33N 52°24' E 004°51'0 0.0
2016-Jul-18 17:33N 52°24' E 004°51'0 0.0
2016-Jul-18 16:33N 52°24' E 004°51'0 0.0
2016-Jul-18 15:33N 52°24' E 004°51'0 0.0
2016-Jul-18 14:33N 52°24' E 004°51'0 0.0
2016-Jul-18 13:33N 52°24' E 004°51'0 0.0
2016-Jul-18 12:33N 52°24' E 004°51'0 0.0
2016-Jul-18 11:33N 52°24' E 004°51'0 0.0
2016-Jul-18 10:33N 52°24' E 004°51'0 0.0
2016-Jul-18 09:33N 52°24' E 004°51'0 0.0
2016-Jul-18 08:33N 52°24' E 004°51'0 0.0
2016-Jul-18 07:33N 52°24' E 004°51'0 0.0
2016-Jul-18 06:33N 52°24' E 004°51'0 0.0
2016-Jul-18 05:33N 52°24' E 004°51'0 0.0
2016-Jul-18 04:33N 52°24' E 004°51'0 0.0
2016-Jul-18 03:33N 52°24' E 004°51'0 0.0
2016-Jul-18 02:33N 52°24' E 004°51'0 0.0
2016-Jul-18 01:33N 52°24' E 004°51'0 0.0
2016-Jul-18 00:33N 52°24' E 004°51'0 0.0
2016-Jul-17 23:33N 52°24' E 004°51'0 0.0
2016-Jul-17 22:32N 52°24' E 004°51'0 0.0
2016-Jul-17 21:32N 52°24' E 004°51'0 0.0
2016-Jul-17 20:32N 52°24' E 004°51'0 0.0
2016-Jul-17 19:32N 52°24' E 004°51'0 0.0
2016-Jul-17 18:32N 52°24' E 004°51'0 0.0
2016-Jul-17 17:32N 52°24' E 004°51'0 0.0
2016-Jul-17 16:32N 52°24' E 004°51'0 0.0
2016-Jul-17 15:32N 52°24' E 004°51'0 0.0
2016-Jul-17 14:32N 52°24' E 004°51'0 0.0
2016-Jul-17 13:32N 52°24' E 004°51'0 0.0
2016-Jul-17 12:32N 52°24' E 004°51'0 0.0
2016-Jul-17 11:32N 52°24' E 004°51'0 0.0
2016-Jul-17 10:32N 52°24' E 004°51'0 0.0
2016-Jul-17 09:32N 52°24' E 004°51'0 0.0
2016-Jul-17 08:32N 52°24' E 004°51'0 0.0
2016-Jul-17 07:29N 52°24' E 004°51'0 0.0
2016-Jul-17 06:32N 52°24' E 004°51'0 0.0
2016-Jul-17 04:32N 52°24' E 004°51'0 0.0
2016-Jul-17 03:32N 52°24' E 004°51'0 0.0
2016-Jul-17 02:32N 52°24' E 004°51'0 0.0
2016-Jul-17 01:32N 52°24' E 004°51'0 0.0
2016-Jul-17 00:32N 52°24' E 004°51'0 0.0
2016-Jul-16 23:32N 52°24' E 004°51'0 0.0
2016-Jul-16 22:32N 52°24' E 004°51'0 0.0
2016-Jul-16 21:32N 52°24' E 004°51'0 0.2
2016-Jul-16 20:33N 52°24' E 004°52'8 7.7
2016-Jul-16 19:33N 52°27' E 004°40'4 4.3
2016-Jul-16 18:33N 52°28' E 004°33'1110.9
2016-Jul-16 17:33N 52°28' E 004°15'1110.7
2016-Jul-16 16:33N 52°27' E 003°58'1110.6
2016-Jul-16 15:32N 52°21' E 003°43'6911.5
2016-Jul-16 09:33N 51°33' E 002°23'1111.5
2016-Jul-16 08:33N 51°23' E 002°12'1010.4
2016-Jul-16 07:33N 51°15' E 002°03'1110.8
2016-Jul-16 06:33N 51°07' E 001°50'76 9.5
2016-Jul-15 22:33N 50°23' E 000°12'1010.2
2016-Jul-15 21:33N 50°20' W 000°03'1010.5
2016-Jul-15 20:33N 50°18' W 000°19'1311.0
2016-Jul-15 19:22N 50°14' W 000°39'8412.2
2016-Jul-15 12:26N 49°49' W 002°44'9710.4
2016-Jul-15 03:04N 49°01' W 004°54'811.2
2016-Jul-15 02:22N 48°57' W 005°04'1011.2
2016-Jul-15 01:31N 48°52' W 005°17'43 8.6
2016-Jul-14 20:32N 48°09' W 005°18'1111.0
2016-Jul-14 19:33N 48°00' W 005°08'1110.7
2016-Jul-14 18:33N 47°53' W 004°56'1010.5
2016-Jul-14 17:33N 47°48' W 004°43'60 9.9
2016-Jul-14 11:33N 47°12' W 003°33'1110.0
2016-Jul-14 10:30N 47°05' W 003°20'9 9.8
2016-Jul-14 09:33N 47°00' W 003°09'10 9.6
2016-Jul-14 08:33N 46°54' W 002°58'29 9.8
2016-Jul-14 05:32N 46°37' W 002°23'10 9.8
2016-Jul-14 04:33N 46°31' W 002°13'1010.0
2016-Jul-14 03:33N 46°24' W 002°02'9 9.5
2016-Jul-14 02:33N 46°19' W 001°50'9 9.5
2016-Jul-14 01:33N 46°13' W 001°39'10 9.7
2016-Jul-14 00:33N 46°08' W 001°27'1010.4
2016-Jul-13 23:33N 46°02' W 001°15'9 8.7
2016-Jul-13 22:32N 45°57' W 001°04'4 0.2
2016-Jul-12 19:33N 45°60' W 001°09'5 5.2
2016-Jul-12 18:32N 46°04' W 001°14'0 0.0
2016-Jul-12 17:32N 46°04' W 001°14'0 0.0
2016-Jul-12 16:32N 46°04' W 001°14'0 0.0
2016-Jul-12 15:29N 46°04' W 001°14'3 2.9
2016-Jul-12 14:33N 46°05' W 001°17'20 9.9
2016-Jul-12 12:33N 46°13' W 001°44'1110.8
2016-Jul-12 11:33N 46°19' W 001°56'1110.9
2016-Jul-12 10:32N 46°25' W 002°10'49 9.8
2016-Jul-12 05:33N 46°55' W 003°07'10 9.8
2016-Jul-12 04:33N 47°00' W 003°19'82 9.8
2016-Jul-11 20:11N 47°47' W 004°57'6 9.4
2016-Jul-11 19:33N 47°51' W 005°04'  
Track history (hours):
 
Tides and Currents Weather Stations Pressure Air Temp Water Temp Dewpoint Dewpoint Depression Visibility Wind Speed Wind Dir Waves Ship Positions

Westgard

Last reported at 2016-Jul-21 19:33 UTC. Time now 2016-Jul-23 19:22 UTC.
Position N 55°49' E 015°57'.

Length 89 m; draft 5.3 m.

Type: Ship. MMSI: 246457000.

Date/timePositionNaut miles runAvg speedWind from/ knotsBaromVisibWave heightAir tempDewpointWater temp
2016-Jul-21 19:33N 55°49' E 015°57'1010.2
2016-Jul-21 18:33N 55°44' E 015°42'10 9.9
2016-Jul-21 17:33N 55°39' E 015°26'1010.1
2016-Jul-21 16:33N 55°34' E 015°11'1010.1
2016-Jul-21 15:33N 55°28' E 014°56'1010.0
2016-Jul-21 14:34N 55°23' E 014°41'10 9.8
2016-Jul-21 13:33N 55°16' E 014°29'10 9.6
2016-Jul-21 12:33N 55°09' E 014°17'10 9.8
2016-Jul-21 11:33N 55°02' E 014°06'10 9.5
2016-Jul-21 10:33N 54°58' E 013°50'10 9.5
2016-Jul-21 09:33N 54°54' E 013°35'10 9.6
2016-Jul-21 08:33N 54°50' E 013°20'9 9.4
2016-Jul-21 07:33N 54°46' E 013°05'9 8.8
2016-Jul-21 06:33N 54°42' E 012°51'9 8.9
2016-Jul-21 05:33N 54°38' E 012°38'9 9.1
2016-Jul-21 04:33N 54°33' E 012°25'9 8.8
2016-Jul-21 03:33N 54°27' E 012°14'8 7.9
2016-Jul-21 02:33N 54°25' E 012°01'9 8.7
2016-Jul-21 01:33N 54°25' E 011°46'9 9.4
2016-Jul-21 00:33N 54°29' E 011°31'9 8.7
2016-Jul-20 23:33N 54°32' E 011°17'8 8.3
2016-Jul-20 22:33N 54°34' E 011°03'28 9.3
2016-Jul-20 19:33N 54°27' E 010°16'7 7.0
2016-Jul-20 18:33N 54°22' E 010°09'5 5.0
2016-Jul-20 17:33N 54°21' E 010°00'31 6.2
2016-Jul-20 12:33N 54°02' E 009°18'6 6.0
2016-Jul-20 11:33N 53°57' E 009°14'3 3.1
2016-Jul-20 10:33N 53°54' E 009°10'2 2.1
2016-Jul-20 09:34N 53°53' E 009°08'4 3.8
2016-Jul-20 08:33N 53°51' E 009°02'8 7.6
2016-Jul-20 07:33N 53°50' E 008°49'7 6.6
2016-Jul-20 06:34N 53°55' E 008°41'7 6.6
2016-Jul-20 05:32N 53°58' E 008°31'7 6.8
2016-Jul-20 04:33N 53°59' E 008°20'9 9.1
2016-Jul-20 03:33N 53°59' E 008°04'8 8.4
2016-Jul-20 02:33N 53°57' E 007°50'9 8.7
2016-Jul-20 01:33N 53°55' E 007°36'9 8.9
2016-Jul-20 00:33N 53°53' E 007°21'9 9.3
2016-Jul-19 23:33N 53°51' E 007°06'10 9.7
2016-Jul-19 22:33N 53°49' E 006°50'1010.2
2016-Jul-19 21:33N 53°47' E 006°33'1110.7
2016-Jul-19 20:33N 53°43' E 006°17'1110.8
2016-Jul-19 19:33N 53°39' E 005°59'1110.8
2016-Jul-19 18:33N 53°36' E 005°42'1110.7
2016-Jul-19 17:33N 53°33' E 005°25'1110.9
2016-Jul-19 16:33N 53°29' E 005°07'1110.7
2016-Jul-19 15:31N 53°25' E 004°50'11 9.7
2016-Jul-19 14:23N 53°16' E 004°39'8 9.9
2016-Jul-19 13:33N 53°09' E 004°34'10 9.7
2016-Jul-19 12:33N 52°59' E 004°32'18 8.9
2016-Jul-19 10:33N 52°41' E 004°32'9 8.6
2016-Jul-19 09:33N 52°33' E 004°31'5 5.3
2016-Jul-19 08:33N 52°28' E 004°35'5 4.9
2016-Jul-19 07:33N 52°26' E 004°43'6 2.0
2016-Jul-19 04:31N 52°24' E 004°52'0 0.1
2016-Jul-19 03:34N 52°24' E 004°52'0 0.0
2016-Jul-19 02:34N 52°24' E 004°52'0 0.0
2016-Jul-19 01:31N 52°24' E 004°52'0 0.0
2016-Jul-19 00:34N 52°24' E 004°52'0 0.0
2016-Jul-18 23:33N 52°24' E 004°52'0 0.0
2016-Jul-18 22:33N 52°24' E 004°52'0 0.0
2016-Jul-18 21:31N 52°24' E 004°52'0 0.4
2016-Jul-18 20:29N 52°24' E 004°52'0 0.2
2016-Jul-18 19:33N 52°24' E 004°52'0 0.0
2016-Jul-18 18:33N 52°24' E 004°51'0 0.0
2016-Jul-18 17:33N 52°24' E 004°51'0 0.0
2016-Jul-18 16:33N 52°24' E 004°51'0 0.0
2016-Jul-18 15:33N 52°24' E 004°51'0 0.0
2016-Jul-18 14:33N 52°24' E 004°51'0 0.0
2016-Jul-18 13:33N 52°24' E 004°51'0 0.0
2016-Jul-18 12:33N 52°24' E 004°51'0 0.0
2016-Jul-18 11:33N 52°24' E 004°51'0 0.0
2016-Jul-18 10:33N 52°24' E 004°51'0 0.0
2016-Jul-18 09:33N 52°24' E 004°51'0 0.0
2016-Jul-18 08:33N 52°24' E 004°51'0 0.0
2016-Jul-18 07:33N 52°24' E 004°51'0 0.0
2016-Jul-18 06:33N 52°24' E 004°51'0 0.0
2016-Jul-18 05:33N 52°24' E 004°51'0 0.0
2016-Jul-18 04:33N 52°24' E 004°51'0 0.0
2016-Jul-18 03:33N 52°24' E 004°51'0 0.0
2016-Jul-18 02:33N 52°24' E 004°51'0 0.0
2016-Jul-18 01:33N 52°24' E 004°51'0 0.0
2016-Jul-18 00:33N 52°24' E 004°51'0 0.0
2016-Jul-17 23:33N 52°24' E 004°51'0 0.0
2016-Jul-17 22:32N 52°24' E 004°51'0 0.0
2016-Jul-17 21:32N 52°24' E 004°51'0 0.0
2016-Jul-17 20:32N 52°24' E 004°51'0 0.0
2016-Jul-17 19:32N 52°24' E 004°51'0 0.0
2016-Jul-17 18:32N 52°24' E 004°51'0 0.0
2016-Jul-17 17:32N 52°24' E 004°51'0 0.0
2016-Jul-17 16:32N 52°24' E 004°51'0 0.0
2016-Jul-17 15:32N 52°24' E 004°51'0 0.0
2016-Jul-17 14:32N 52°24' E 004°51'0 0.0
2016-Jul-17 13:32N 52°24' E 004°51'0 0.0
2016-Jul-17 12:32N 52°24' E 004°51'0 0.0
2016-Jul-17 11:32N 52°24' E 004°51'0 0.0
2016-Jul-17 10:32N 52°24' E 004°51'0 0.0
2016-Jul-17 09:32N 52°24' E 004°51'0 0.0
2016-Jul-17 08:32N 52°24' E 004°51'0 0.0
2016-Jul-17 07:29N 52°24' E 004°51'0 0.0
2016-Jul-17 06:32N 52°24' E 004°51'0 0.0
2016-Jul-17 04:32N 52°24' E 004°51'0 0.0
2016-Jul-17 03:32N 52°24' E 004°51'0 0.0
2016-Jul-17 02:32N 52°24' E 004°51'0 0.0
2016-Jul-17 01:32N 52°24' E 004°51'0 0.0
2016-Jul-17 00:32N 52°24' E 004°51'0 0.0
2016-Jul-16 23:32N 52°24' E 004°51'0 0.0
2016-Jul-16 22:32N 52°24' E 004°51'0 0.0
2016-Jul-16 21:32N 52°24' E 004°51'0 0.2
2016-Jul-16 20:33N 52°24' E 004°52'8 7.7
2016-Jul-16 19:33N 52°27' E 004°40'4 4.3
2016-Jul-16 18:33N 52°28' E 004°33'1110.9
2016-Jul-16 17:33N 52°28' E 004°15'1110.7
2016-Jul-16 16:33N 52°27' E 003°58'1110.6
2016-Jul-16 15:32N 52°21' E 003°43'6911.5
2016-Jul-16 09:33N 51°33' E 002°23'1111.5
2016-Jul-16 08:33N 51°23' E 002°12'1010.4
2016-Jul-16 07:33N 51°15' E 002°03'1110.8
2016-Jul-16 06:33N 51°07' E 001°50'76 9.5
2016-Jul-15 22:33N 50°23' E 000°12'1010.2
2016-Jul-15 21:33N 50°20' W 000°03'1010.5
2016-Jul-15 20:33N 50°18' W 000°19'1311.0
2016-Jul-15 19:22N 50°14' W 000°39'8412.2
2016-Jul-15 12:26N 49°49' W 002°44'9710.4
2016-Jul-15 03:04N 49°01' W 004°54'811.2
2016-Jul-15 02:22N 48°57' W 005°04'1011.2
2016-Jul-15 01:31N 48°52' W 005°17'43 8.6
2016-Jul-14 20:32N 48°09' W 005°18'1111.0
2016-Jul-14 19:33N 48°00' W 005°08'1110.7
2016-Jul-14 18:33N 47°53' W 004°56'1010.5
2016-Jul-14 17:33N 47°48' W 004°43'60 9.9
2016-Jul-14 11:33N 47°12' W 003°33'1110.0
2016-Jul-14 10:30N 47°05' W 003°20'9 9.8
2016-Jul-14 09:33N 47°00' W 003°09'10 9.6
2016-Jul-14 08:33N 46°54' W 002°58'29 9.8
2016-Jul-14 05:32N 46°37' W 002°23'10 9.8
2016-Jul-14 04:33N 46°31' W 002°13'1010.0
2016-Jul-14 03:33N 46°24' W 002°02'9 9.5
2016-Jul-14 02:33N 46°19' W 001°50'9 9.5
2016-Jul-14 01:33N 46°13' W 001°39'10 9.7
2016-Jul-14 00:33N 46°08' W 001°27'1010.4
2016-Jul-13 23:33N 46°02' W 001°15'9 8.7
2016-Jul-13 22:32N 45°57' W 001°04'4 0.2
2016-Jul-12 19:33N 45°60' W 001°09'5 5.2
2016-Jul-12 18:32N 46°04' W 001°14'0 0.0
2016-Jul-12 17:32N 46°04' W 001°14'0 0.0
2016-Jul-12 16:32N 46°04' W 001°14'0 0.0
2016-Jul-12 15:29N 46°04' W 001°14'3 2.9
2016-Jul-12 14:33N 46°05' W 001°17'20 9.9
2016-Jul-12 12:33N 46°13' W 001°44'1110.8
2016-Jul-12 11:33N 46°19' W 001°56'1110.9
2016-Jul-12 10:32N 46°25' W 002°10'49 9.8
2016-Jul-12 05:33N 46°55' W 003°07'10 9.8
2016-Jul-12 04:33N 47°00' W 003°19'82 9.8
2016-Jul-11 20:11N 47°47' W 004°57'6 9.4
2016-Jul-11 19:33N 47°51' W 005°04'  

Dump ship's entire track history